Saltar al contingut principal

Dades de l'estació automàtica Navata

Selector estació i data
?
?

Resum diari

22:00 TU
Dades diàries de l'estació meteorològica
Temperatura mitjana 25.2 °C
Temperatura màxima 34.0 °C 12:57 TU
Temperatura mínima 15.3 °C 2:49 TU
Humitat relativa mitjana 67%
Precipitació acumulada 0.0 mm
Ratxa màxima del vent (10 m) 34.9 km/h - 187º 14:41 TU
Irradiació solar global 29.3 MJ/m2

El tram horari està expressat en Temps Universal (TU). Cal sumar una hora en horari d'hivern i dues en horari d'estiu per passar a l'hora oficial.

Navata

Metadades estació meteorològica
Municipi Navata
Comarca Alt Empordà
Altitud 152 m
Data alta 26.08.2014
Estat actual Operativa
Dades de període
Període
TU
TM
°C
TX
°C
TN
°C
HRM
%
PPT
mm
VVM (10 m)
km/h
DVM (10 m)
graus
VVX (10 m)
km/h
RS
W/m2
00:00 - 00:30 16.9 17.2 16.6 81 0.0 6.1 265 9.7 0
00:30 - 01:00 16.6 16.7 16.5 82 0.0 5.0 252 7.6 0
01:00 - 01:30 16.5 16.7 16.3 83 0.0 1.1 131 4.0 0
01:30 - 02:00 16.4 16.5 16.3 83 0.0 1.8 220 4.3 0
02:00 - 02:30 16.1 16.5 15.7 87 0.0 3.6 252 5.0 0
02:30 - 03:00 15.6 15.8 15.3 95 0.0 5.8 278 7.2 0
03:00 - 03:30 16.2 16.4 15.8 88 0.0 5.0 274 6.1 0
03:30 - 04:00 15.6 15.9 15.4 94 0.0 5.0 238 6.5 0
04:00 - 04:30 15.6 15.7 15.5 93 0.0 6.1 253 7.9 1
04:30 - 05:00 15.8 16.0 15.7 92 0.0 6.1 273 7.9 22
05:00 - 05:30 16.7 17.8 15.9 89 0.0 5.0 243 6.8 81
05:30 - 06:00 18.5 19.3 17.8 78 0.0 3.6 195 6.8 157
06:00 - 06:30 19.5 19.8 19.2 78 0.0 4.0 202 7.6 222
06:30 - 07:00 21.0 22.1 19.9 73 0.0 4.7 158 9.4 329
07:00 - 07:30 22.3 22.9 21.9 68 0.0 6.1 171 11.2 428
07:30 - 08:00 23.3 24.0 22.6 65 0.0 5.0 149 10.4 513
08:00 - 08:30 24.8 25.7 24.0 61 0.0 5.4 132 14.0 612
08:30 - 09:00 26.3 27.2 25.4 58 0.0 6.5 134 14.0 674
09:00 - 09:30 27.7 28.4 27.1 53 0.0 4.7 170 12.2 765
09:30 - 10:00 29.5 30.1 28.3 49 0.0 11.2 151 22.7 832
10:00 - 10:30 30.1 30.5 29.6 47 0.0 13.7 183 22.0 884
10:30 - 11:00 31.0 31.6 30.2 45 0.0 15.8 156 31.0 923
11:00 - 11:30 31.8 32.9 31.0 44 0.0 13.0 170 27.4 948
11:30 - 12:00 32.6 33.1 32.2 43 0.0 15.8 165 30.2 954
12:00 - 12:30 32.8 33.5 32.5 44 0.0 19.4 145 33.1 955
12:30 - 13:00 33.3 34.0 32.9 43 0.0 16.9 178 29.5 941
13:00 - 13:30 33.2 33.8 32.7 44 0.0 18.4 180 30.6 910
13:30 - 14:00 33.1 34.0 32.3 46 0.0 19.8 166 33.5 842
14:00 - 14:30 32.6 33.1 32.3 47 0.0 21.2 176 33.1 804
14:30 - 15:00 32.6 33.0 32.3 48 0.0 20.9 179 34.9 730
15:00 - 15:30 32.5 32.9 32.2 49 0.0 19.8 164 31.7 667
15:30 - 16:00 32.6 33.0 32.3 49 0.0 17.6 173 28.8 566
16:00 - 16:30 32.1 32.4 31.8 52 0.0 16.6 171 27.0 493
16:30 - 17:00 31.6 32.2 31.2 54 0.0 10.8 175 20.2 388
17:00 - 17:30 31.2 31.8 30.9 56 0.0 7.9 160 18.0 304
17:30 - 18:00 30.6 31.3 30.0 58 0.0 7.6 136 22.7 208
18:00 - 18:30 28.9 29.8 28.0 63 0.0 12.2 60 20.9 116
18:30 - 19:00 27.6 28.0 27.0 66 0.0 13.3 56 19.4 44
19:00 - 19:30 26.3 26.9 25.8 69 0.0 11.9 75 17.6 6
19:30 - 20:00 25.3 25.8 25.1 73 0.0 8.6 70 13.3 0
20:00 - 20:30 24.7 25.1 24.3 76 0.0 8.6 48 14.0 0
20:30 - 21:00 24.4 24.5 24.3 77 0.0 9.4 54 12.2 0
21:00 - 21:30 23.9 24.2 23.7 81 0.0 9.7 65 13.7 0
21:30 - 22:00 23.4 23.7 23.1 87 0.0 7.9 62 11.5 0
22:00 - 22:30 22.7 23.1 22.2 97 0.0 4.3 62 9.0 0

Les dades en taronja només han passat un control de qualitat automàtic. Resta pendent la seva validació definitiva.